Time;durP1;ratioP1;P1;durP2;ratioP2;P2;SDS_P1;SDS_P2;PMS_P1;PMS_P2;Temp;Humidity;BMP_temperature;BMP_pressure;BME280_temperature;BME280_humidity;BME280_pressure;Samples;Min_cycle;Max_cycle;Signal;HPM_P1;HPM_P2
2023/12/03 00:02:12;;;;;;;7.60;4.75;;;;;;;;;;5039496;28;20025;-83
2023/12/03 00:04:38;;;;;;;10.35;5.38;;;;;;;;;;5042162;28;20035;-80
2023/12/03 00:07:06;;;;;;;11.02;6.00;;;;;;;;;;5049887;28;20032;-83
2023/12/03 00:09:32;;;;;;;10.80;5.25;;;;;;;;;;5039805;28;20101;-81
2023/12/03 00:11:57;;;;;;;11.43;5.63;;;;;;;;;;5039369;28;20060;-80
2023/12/03 00:14:24;;;;;;;9.82;5.00;;;;;;;;;;5055943;28;20052;-81
2023/12/03 00:16:50;;;;;;;9.75;5.20;;;;;;;;;;5040630;28;20029;-81
2023/12/03 00:19:15;;;;;;;10.10;5.28;;;;;;;;;;5052162;28;20032;-81
2023/12/03 00:21:40;;;;;;;14.27;6.30;;;;;;;;;;5055711;28;20025;-80
2023/12/03 00:24:06;;;;;;;10.38;5.55;;;;;;;;;;5052857;28;20026;-83
2023/12/03 00:26:31;;;;;;;10.65;5.78;;;;;;;;;;5039281;28;20029;-81
2023/12/03 00:28:56;;;;;;;11.90;5.80;;;;;;;;;;5057508;28;20041;-81
2023/12/03 00:31:24;;;;;;;12.50;6.03;;;;;;;;;;5058596;28;20028;-83
2023/12/03 00:33:49;;;;;;;10.32;4.50;;;;;;;;;;5055043;28;20048;-80
2023/12/03 00:36:14;;;;;;;12.10;5.63;;;;;;;;;;5042987;28;20025;-83
2023/12/03 00:38:39;;;;;;;10.65;5.65;;;;;;;;;;5039554;28;20055;-82
2023/12/03 00:41:05;;;;;;;10.02;5.88;;;;;;;;;;5055683;28;20021;-81
2023/12/03 00:43:30;;;;;;;9.82;5.53;;;;;;;;;;5054985;28;20014;-81
2023/12/03 00:45:57;;;;;;;9.00;5.05;;;;;;;;;;5054436;28;20075;-83
2023/12/03 00:48:22;;;;;;;12.30;5.97;;;;;;;;;;5054207;28;20496;-82
2023/12/03 00:50:48;;;;;;;9.20;5.05;;;;;;;;;;5057728;28;20040;-82
2023/12/03 00:53:14;;;;;;;10.95;6.05;;;;;;;;;;5058273;28;20027;-81
2023/12/03 00:55:39;;;;;;;9.43;5.38;;;;;;;;;;5056461;28;20032;-81
2023/12/03 00:58:04;;;;;;;12.52;5.80;;;;;;;;;;5053076;28;20029;-81
2023/12/03 01:00:29;;;;;;;10.13;5.88;;;;;;;;;;5046003;28;20016;-85
2023/12/03 01:02:55;;;;;;;11.00;5.72;;;;;;;;;;5058355;28;20064;-81
2023/12/03 01:05:20;;;;;;;9.73;4.93;;;;;;;;;;5056118;28;20021;-82
2023/12/03 01:07:45;;;;;;;11.57;5.93;;;;;;;;;;5056097;28;20121;-81
2023/12/03 01:10:10;;;;;;;10.90;5.50;;;;;;;;;;5039520;28;20060;-81
2023/12/03 01:12:36;;;;;;;10.65;6.15;;;;;;;;;;5035393;28;20068;-82
2023/12/03 01:15:01;;;;;;;11.23;6.18;;;;;;;;;;5037378;28;20047;-82
2023/12/03 01:17:27;;;;;;;10.90;5.80;;;;;;;;;;5056579;28;20017;-85
2023/12/03 01:19:52;;;;;;;12.85;6.00;;;;;;;;;;5059629;28;20025;-84
2023/12/03 01:22:17;;;;;;;11.75;5.95;;;;;;;;;;5065618;28;20492;-81
2023/12/03 01:24:42;;;;;;;11.80;6.35;;;;;;;;;;5041269;28;20025;-81
2023/12/03 01:27:07;;;;;;;11.75;5.95;;;;;;;;;;5035063;28;20448;-82
2023/12/03 01:29:33;;;;;;;11.90;6.25;;;;;;;;;;5048514;28;20815;-81
2023/12/03 01:31:58;;;;;;;9.57;5.13;;;;;;;;;;5050265;28;20029;-82
2023/12/03 01:34:23;;;;;;;12.13;5.95;;;;;;;;;;5038937;28;20020;-81
2023/12/03 01:36:49;;;;;;;13.48;6.32;;;;;;;;;;5051293;28;20064;-80
2023/12/03 01:39:14;;;;;;;11.88;5.82;;;;;;;;;;5039425;28;20423;-80
2023/12/03 01:41:39;;;;;;;14.30;6.10;;;;;;;;;;5052585;28;20033;-80
2023/12/03 01:44:05;;;;;;;12.35;7.00;;;;;;;;;;5052880;28;20033;-81
2023/12/03 01:46:30;;;;;;;13.23;6.22;;;;;;;;;;5049462;28;20041;-82
2023/12/03 01:48:55;;;;;;;14.55;6.50;;;;;;;;;;5038851;28;20032;-81
2023/12/03 01:51:22;;;;;;;12.48;6.10;;;;;;;;;;5047994;28;20032;-81
2023/12/03 01:53:49;;;;;;;13.00;6.72;;;;;;;;;;5038319;28;20025;-82
2023/12/03 01:56:15;;;;;;;13.00;6.63;;;;;;;;;;5040344;28;20028;-83
2023/12/03 01:58:41;;;;;;;11.00;5.90;;;;;;;;;;5036721;28;20491;-81
2023/12/03 02:01:07;;;;;;;12.68;6.28;;;;;;;;;;5050651;28;20101;-81
2023/12/03 02:03:32;;;;;;;13.25;6.65;;;;;;;;;;5047823;28;20021;-82
2023/12/03 02:06:07;;;;;;;14.13;6.88;;;;;;;;;;5052376;28;20033;-83
2023/12/03 02:08:34;;;;;;;13.85;6.75;;;;;;;;;;5053805;28;20039;-81
2023/12/03 02:11:00;;;;;;;12.98;6.82;;;;;;;;;;5046424;28;20039;-82
2023/12/03 02:13:29;;;;;;;11.98;5.95;;;;;;;;;;5046023;28;20108;-81
2023/12/03 02:15:54;;;;;;;12.48;6.68;;;;;;;;;;5034035;28;20048;-81
2023/12/03 02:18:19;;;;;;;13.70;6.53;;;;;;;;;;5047643;28;20029;-82
2023/12/03 02:20:45;;;;;;;13.98;7.22;;;;;;;;;;5035831;28;20032;-81
2023/12/03 02:23:10;;;;;;;14.10;6.90;;;;;;;;;;5043476;28;20033;-81
2023/12/03 02:25:35;;;;;;;10.68;5.60;;;;;;;;;;5043393;28;20104;-81
2023/12/03 02:28:00;;;;;;;10.77;4.90;;;;;;;;;;5033685;28;20056;-81
2023/12/03 02:30:26;;;;;;;14.13;6.65;;;;;;;;;;5046962;28;20066;-81
2023/12/03 02:32:51;;;;;;;13.65;6.80;;;;;;;;;;5047573;28;20029;-81
2023/12/03 02:35:16;;;;;;;12.98;6.82;;;;;;;;;;5034694;28;20033;-81
2023/12/03 02:37:42;;;;;;;12.02;6.43;;;;;;;;;;5053712;28;20080;-82
2023/12/03 02:40:07;;;;;;;14.68;6.80;;;;;;;;;;5054759;28;20044;-82
2023/12/03 02:42:33;;;;;;;14.90;6.60;;;;;;;;;;5035176;28;20025;-82
2023/12/03 02:44:58;;;;;;;12.73;6.68;;;;;;;;;;5053560;28;20112;-82
2023/12/03 02:47:23;;;;;;;14.57;6.68;;;;;;;;;;5033030;28;20060;-82
2023/12/03 02:49:49;;;;;;;12.80;6.57;;;;;;;;;;5040439;28;20440;-82
2023/12/03 02:52:14;;;;;;;15.95;7.63;;;;;;;;;;5053058;28;20427;-81
2023/12/03 02:54:39;;;;;;;14.77;7.57;;;;;;;;;;5049776;28;20108;-81
2023/12/03 02:57:05;;;;;;;14.63;7.55;;;;;;;;;;5050866;28;20499;-81
2023/12/03 02:59:31;;;;;;;17.25;7.60;;;;;;;;;;5037615;28;20386;-81
2023/12/03 03:01:56;;;;;;;12.32;6.90;;;;;;;;;;5053239;28;20116;-83
2023/12/03 03:04:21;;;;;;;16.10;6.57;;;;;;;;;;5055385;28;20391;-83
2023/12/03 03:06:46;;;;;;;13.32;7.15;;;;;;;;;;5049344;28;20376;-83
2023/12/03 03:09:11;;;;;;;13.52;6.05;;;;;;;;;;5040384;28;20108;-83
2023/12/03 03:11:37;;;;;;;16.17;6.88;;;;;;;;;;5032836;28;20040;-81
2023/12/03 03:14:02;;;;;;;13.20;6.93;;;;;;;;;;5038832;28;20032;-81
2023/12/03 03:16:27;;;;;;;17.98;7.53;;;;;;;;;;5059995;28;20403;-82
2023/12/03 03:18:54;;;;;;;13.35;6.72;;;;;;;;;;5059751;28;20033;-84
2023/12/03 03:21:19;;;;;;;11.45;6.13;;;;;;;;;;5028047;28;20044;-82
2023/12/03 03:23:44;;;;;;;12.85;6.88;;;;;;;;;;5059097;28;20033;-82
2023/12/03 03:26:10;;;;;;;15.38;7.00;;;;;;;;;;5060067;28;20462;-82
2023/12/03 03:28:35;;;;;;;16.27;8.00;;;;;;;;;;5041893;28;20028;-81
2023/12/03 03:31:00;;;;;;;15.45;7.63;;;;;;;;;;5057233;28;20392;-81
2023/12/03 03:33:25;;;;;;;12.80;6.47;;;;;;;;;;5032417;28;20029;-81
2023/12/03 03:35:51;;;;;;;17.77;7.18;;;;;;;;;;5029929;28;20033;-82
2023/12/03 03:38:16;;;;;;;16.15;7.13;;;;;;;;;;5040862;28;20425;-82
2023/12/03 03:40:41;;;;;;;15.45;7.22;;;;;;;;;;5043260;28;20037;-82
2023/12/03 03:43:06;;;;;;;14.02;6.90;;;;;;;;;;5060678;28;20391;-83
2023/12/03 03:45:34;;;;;;;16.13;7.63;;;;;;;;;;5058399;28;20075;-82
2023/12/03 03:47:59;;;;;;;14.32;7.68;;;;;;;;;;5049997;28;20441;-82
2023/12/03 03:50:25;;;;;;;16.67;7.53;;;;;;;;;;5058034;28;20025;-83
2023/12/03 03:52:50;;;;;;;17.40;7.90;;;;;;;;;;5057390;28;20036;-82
2023/12/03 03:55:15;;;;;;;15.05;7.38;;;;;;;;;;5057667;28;20032;-82
2023/12/03 03:57:40;;;;;;;13.93;7.22;;;;;;;;;;5051286;28;20036;-80
2023/12/03 04:00:06;;;;;;;12.63;6.50;;;;;;;;;;5032413;28;20087;-82
2023/12/03 04:02:31;;;;;;;11.55;5.05;;;;;;;;;;5037673;28;20029;-82
2023/12/03 04:04:57;;;;;;;14.50;7.43;;;;;;;;;;5050682;28;20029;-82
2023/12/03 04:07:22;;;;;;;15.30;7.57;;;;;;;;;;5058144;28;20037;-82
2023/12/03 04:09:48;;;;;;;13.70;7.18;;;;;;;;;;5034357;28;20087;-80
2023/12/03 04:12:14;;;;;;;14.35;7.35;;;;;;;;;;5026286;28;20048;-81
2023/12/03 04:14:40;;;;;;;12.48;7.35;;;;;;;;;;5055849;28;20040;-81
2023/12/03 04:17:05;;;;;;;12.57;6.93;;;;;;;;;;5057096;28;20033;-84
2023/12/03 04:19:30;;;;;;;12.73;6.75;;;;;;;;;;5057685;28;20078;-82
2023/12/03 04:21:56;;;;;;;14.13;7.45;;;;;;;;;;5035064;28;20037;-82
2023/12/03 04:24:21;;;;;;;13.88;7.53;;;;;;;;;;5042265;28;20032;-82
2023/12/03 04:26:46;;;;;;;14.10;7.15;;;;;;;;;;5048290;28;20083;-84
2023/12/03 04:29:12;;;;;;;12.50;6.40;;;;;;;;;;5062097;28;20110;-83
2023/12/03 04:31:37;;;;;;;12.57;6.50;;;;;;;;;;5043367;28;20033;-83
2023/12/03 04:34:02;;;;;;;13.65;7.07;;;;;;;;;;5058083;28;20229;-82
2023/12/03 04:36:27;;;;;;;13.85;6.75;;;;;;;;;;5033373;28;20078;-83
2023/12/03 04:38:53;;;;;;;10.43;5.85;;;;;;;;;;5052151;28;20025;-82
2023/12/03 04:41:19;;;;;;;11.70;6.38;;;;;;;;;;5060553;28;20040;-81
2023/12/03 04:43:45;;;;;;;12.38;6.28;;;;;;;;;;5061345;28;20021;-82
2023/12/03 04:46:10;;;;;;;11.80;6.35;;;;;;;;;;5039980;28;20547;-81
2023/12/03 04:48:38;;;;;;;12.35;6.72;;;;;;;;;;5048003;28;20112;-82
2023/12/03 04:51:03;;;;;;;13.35;7.00;;;;;;;;;;5041738;28;20021;-80
2023/12/03 04:53:29;;;;;;;12.65;6.47;;;;;;;;;;5080363;28;20036;-85
2023/12/03 04:55:54;;;;;;;11.10;6.18;;;;;;;;;;5078837;28;20478;-82
2023/12/03 04:58:20;;;;;;;10.35;6.25;;;;;;;;;;5042646;28;20033;-80
2023/12/03 05:00:45;;;;;;;12.20;6.20;;;;;;;;;;5059569;28;20048;-82
2023/12/03 05:03:10;;;;;;;10.63;5.68;;;;;;;;;;5059825;28;20020;-80
2023/12/03 05:05:36;;;;;;;11.05;6.72;;;;;;;;;;5059506;28;20036;-80
2023/12/03 05:08:01;;;;;;;10.98;5.78;;;;;;;;;;5059549;28;20502;-80
2023/12/03 05:10:26;;;;;;;11.88;6.38;;;;;;;;;;5059873;28;20032;-80
2023/12/03 05:12:52;;;;;;;11.77;6.55;;;;;;;;;;5061038;28;20119;-81
2023/12/03 05:15:17;;;;;;;13.20;5.88;;;;;;;;;;5060987;28;20071;-82
2023/12/03 05:17:42;;;;;;;10.07;5.47;;;;;;;;;;5059606;28;20029;-81
2023/12/03 05:20:08;;;;;;;9.88;5.45;;;;;;;;;;5060885;28;20025;-82
2023/12/03 05:22:33;;;;;;;12.25;5.90;;;;;;;;;;5059900;28;20411;-81
2023/12/03 05:24:59;;;;;;;14.55;6.90;;;;;;;;;;5061490;28;20528;-82
2023/12/03 05:27:24;;;;;;;11.02;5.93;;;;;;;;;;5043390;28;20056;-81
2023/12/03 05:29:50;;;;;;;12.18;6.00;;;;;;;;;;5059979;28;20027;-81
2023/12/03 05:32:18;;;;;;;10.02;5.68;;;;;;;;;;5040255;28;20104;-81
2023/12/03 05:34:44;;;;;;;11.00;5.70;;;;;;;;;;5058466;28;20025;-82
2023/12/03 05:37:09;;;;;;;11.70;6.07;;;;;;;;;;5040097;28;20040;-80
2023/12/03 05:39:35;;;;;;;11.80;6.32;;;;;;;;;;5058493;28;20032;-81
2023/12/03 05:42:00;;;;;;;9.75;5.35;;;;;;;;;;5037701;28;20026;-82
2023/12/03 05:44:25;;;;;;;8.73;5.20;;;;;;;;;;5038287;28;20082;-81
2023/12/03 05:46:50;;;;;;;11.40;5.68;;;;;;;;;;5037679;28;20036;-83
2023/12/03 05:49:16;;;;;;;10.10;6.05;;;;;;;;;;5037740;28;20392;-82
2023/12/03 05:51:44;;;;;;;10.07;6.22;;;;;;;;;;5051715;28;20426;-81
2023/12/03 05:54:09;;;;;;;11.82;6.22;;;;;;;;;;5037740;28;20028;-80
2023/12/03 05:56:35;;;;;;;11.40;6.00;;;;;;;;;;5055882;28;20104;-82
2023/12/03 05:59:00;;;;;;;14.80;6.88;;;;;;;;;;5055919;28;20125;-82
2023/12/03 06:01:26;;;;;;;11.27;5.80;;;;;;;;;;5056744;28;20088;-79
2023/12/03 06:03:51;;;;;;;11.73;6.05;;;;;;;;;;5063608;28;20508;-82
2023/12/03 06:06:17;;;;;;;12.15;6.07;;;;;;;;;;5062437;28;20488;-82
2023/12/03 06:08:42;;;;;;;13.48;6.25;;;;;;;;;;5045631;28;20037;-82
2023/12/03 06:11:08;;;;;;;11.05;6.15;;;;;;;;;;5063147;28;20055;-83
2023/12/03 06:13:33;;;;;;;11.95;6.32;;;;;;;;;;5062060;28;20032;-82
2023/12/03 06:15:58;;;;;;;11.75;5.88;;;;;;;;;;5058985;28;20061;-81
2023/12/03 06:18:23;;;;;;;13.00;6.43;;;;;;;;;;5061234;28;20055;-81
2023/12/03 06:20:48;;;;;;;9.93;5.60;;;;;;;;;;5061195;28;20479;-79
2023/12/03 06:23:14;;;;;;;11.13;5.70;;;;;;;;;;5060781;28;20025;-82
2023/12/03 06:25:39;;;;;;;9.15;5.30;;;;;;;;;;5059082;28;20492;-81
2023/12/03 06:28:04;;;;;;;13.35;6.22;;;;;;;;;;5040447;28;20029;-81
2023/12/03 06:30:30;;;;;;;11.30;5.80;;;;;;;;;;5059513;28;20111;-82
2023/12/03 06:32:55;;;;;;;11.45;5.63;;;;;;;;;;5058903;28;20053;-81
2023/12/03 06:35:20;;;;;;;13.25;6.57;;;;;;;;;;5040384;28;20116;-81
2023/12/03 06:37:45;;;;;;;10.85;5.57;;;;;;;;;;5040013;28;20021;-81
2023/12/03 06:40:11;;;;;;;8.98;5.25;;;;;;;;;;5039601;28;20078;-82
2023/12/03 06:42:36;;;;;;;10.20;5.75;;;;;;;;;;5057863;28;20479;-81
2023/12/03 06:45:01;;;;;;;8.90;4.65;;;;;;;;;;5057941;28;20033;-81
2023/12/03 06:47:27;;;;;;;12.55;5.78;;;;;;;;;;5057340;28;20036;-82
2023/12/03 06:49:52;;;;;;;10.98;5.93;;;;;;;;;;5057126;28;20025;-82
2023/12/03 06:52:17;;;;;;;13.70;6.28;;;;;;;;;;5055470;28;20040;-80
2023/12/03 06:54:42;;;;;;;11.02;6.30;;;;;;;;;;5038619;28;20032;-82
2023/12/03 06:57:08;;;;;;;11.98;6.30;;;;;;;;;;5056805;28;20049;-81
2023/12/03 06:59:33;;;;;;;12.20;6.35;;;;;;;;;;5056925;28;20044;-83
2023/12/03 07:01:58;;;;;;;15.63;5.63;;;;;;;;;;5060839;28;20017;-82
2023/12/03 07:04:23;;;;;;;13.60;6.47;;;;;;;;;;5056695;28;20055;-83
2023/12/03 07:06:51;;;;;;;12.85;6.32;;;;;;;;;;5055752;28;20033;-81
2023/12/03 07:09:16;;;;;;;12.63;6.30;;;;;;;;;;5055472;28;20021;-81
2023/12/03 07:11:41;;;;;;;11.35;5.90;;;;;;;;;;5036890;28;20525;-81
2023/12/03 07:14:06;;;;;;;12.18;6.38;;;;;;;;;;5037526;28;20399;-82
2023/12/03 07:16:32;;;;;;;13.98;6.88;;;;;;;;;;5056125;28;20126;-82
2023/12/03 07:18:57;;;;;;;13.57;6.78;;;;;;;;;;5038869;28;20098;-81
2023/12/03 07:21:22;;;;;;;12.15;6.13;;;;;;;;;;5055480;28;20036;-81
2023/12/03 07:23:48;;;;;;;10.82;6.03;;;;;;;;;;5056037;28;20013;-81
2023/12/03 07:26:13;;;;;;;13.77;6.50;;;;;;;;;;5055695;28;20029;-82
2023/12/03 07:28:40;;;;;;;11.77;5.80;;;;;;;;;;5055258;28;20025;-81
2023/12/03 07:31:09;;;;;;;13.23;6.40;;;;;;;;;;5054944;28;20050;-81
2023/12/03 07:33:34;;;;;;;14.52;6.95;;;;;;;;;;5055452;28;20029;-82
2023/12/03 07:36:00;;;;;;;16.88;7.40;;;;;;;;;;5037414;28;20048;-82
2023/12/03 07:38:25;;;;;;;14.65;7.03;;;;;;;;;;5055316;28;20159;-80
2023/12/03 07:40:51;;;;;;;14.05;7.15;;;;;;;;;;5054611;28;20401;-80
2023/12/03 07:43:16;;;;;;;12.85;6.28;;;;;;;;;;5059446;28;20017;-82
2023/12/03 07:45:41;;;;;;;14.57;6.28;;;;;;;;;;5058514;28;20102;-80
2023/12/03 07:48:07;;;;;;;12.95;6.25;;;;;;;;;;5050055;28;20085;-81
2023/12/03 07:50:32;;;;;;;12.05;5.45;;;;;;;;;;5046789;28;20022;-83
2023/12/03 07:52:58;;;;;;;14.88;6.97;;;;;;;;;;5054446;28;20037;-81
2023/12/03 07:55:24;;;;;;;12.82;6.85;;;;;;;;;;5055613;28;20440;-81
2023/12/03 07:57:50;;;;;;;13.85;6.78;;;;;;;;;;5038113;28;20075;-81
2023/12/03 08:00:16;;;;;;;12.30;5.90;;;;;;;;;;5038829;28;20053;-81
2023/12/03 08:02:42;;;;;;;13.50;6.95;;;;;;;;;;5059837;28;20043;-81
2023/12/03 08:05:08;;;;;;;17.05;7.32;;;;;;;;;;5048948;28;20056;-82
2023/12/03 08:07:34;;;;;;;12.80;6.30;;;;;;;;;;5038282;28;20021;-82
2023/12/03 08:09:59;;;;;;;14.32;7.80;;;;;;;;;;5037927;28;20480;-81
2023/12/03 08:12:24;;;;;;;24.17;8.82;;;;;;;;;;5058015;28;20126;-81
2023/12/03 08:14:49;;;;;;;15.63;7.63;;;;;;;;;;5060453;28;20063;-80
2023/12/03 08:17:14;;;;;;;15.98;7.50;;;;;;;;;;5060471;28;20048;-80
2023/12/03 08:19:40;;;;;;;19.55;7.45;;;;;;;;;;5041369;28;20032;-81
2023/12/03 08:22:06;;;;;;;15.15;7.25;;;;;;;;;;5041452;28;20547;-82
2023/12/03 08:24:33;;;;;;;14.85;7.65;;;;;;;;;;5060354;28;20025;-82
2023/12/03 08:26:58;;;;;;;14.05;7.00;;;;;;;;;;5070039;28;20009;-83
2023/12/03 08:29:23;;;;;;;17.25;7.40;;;;;;;;;;5050927;28;20025;-81
2023/12/03 08:31:49;;;;;;;13.32;7.13;;;;;;;;;;5079516;28;20028;-83
2023/12/03 08:34:15;;;;;;;14.95;7.43;;;;;;;;;;5036184;28;20439;-82
2023/12/03 08:36:41;;;;;;;16.67;7.32;;;;;;;;;;5039292;28;20029;-81
2023/12/03 08:39:08;;;;;;;12.52;7.25;;;;;;;;;;5038140;28;20529;-81
2023/12/03 08:41:34;;;;;;;13.50;7.07;;;;;;;;;;5040430;28;20024;-81
2023/12/03 08:43:59;;;;;;;14.02;6.60;;;;;;;;;;5052751;28;20049;-81
2023/12/03 08:46:24;;;;;;;13.52;6.93;;;;;;;;;;5037708;28;20025;-81
2023/12/03 08:48:50;;;;;;;15.73;7.97;;;;;;;;;;5052958;28;20032;-81
2023/12/03 08:51:15;;;;;;;13.95;7.28;;;;;;;;;;5059048;28;20029;-80
2023/12/03 08:53:41;;;;;;;17.38;7.35;;;;;;;;;;5023578;28;20034;-83
2023/12/03 08:56:10;;;;;;;13.77;7.22;;;;;;;;;;5037194;28;20094;-81
2023/12/03 08:58:35;;;;;;;12.57;7.15;;;;;;;;;;5043087;28;20096;-81
2023/12/03 09:01:00;;;;;;;13.70;6.75;;;;;;;;;;5057847;28;20059;-82
2023/12/03 09:03:26;;;;;;;13.68;7.40;;;;;;;;;;5044441;28;20029;-80
2023/12/03 09:05:51;;;;;;;13.88;6.88;;;;;;;;;;5060889;28;20064;-80
2023/12/03 09:08:16;;;;;;;13.73;7.38;;;;;;;;;;5058394;28;20029;-81
2023/12/03 09:10:41;;;;;;;14.50;7.28;;;;;;;;;;5055685;28;20025;-82
2023/12/03 09:13:07;;;;;;;15.05;7.75;;;;;;;;;;5044503;28;20053;-81
2023/12/03 09:15:32;;;;;;;17.38;7.88;;;;;;;;;;5024949;28;20029;-81
2023/12/03 09:17:57;;;;;;;16.17;7.15;;;;;;;;;;5059106;28;20031;-81
2023/12/03 09:20:23;;;;;;;14.65;7.75;;;;;;;;;;5056665;28;20025;-82
2023/12/03 09:22:48;;;;;;;15.63;7.93;;;;;;;;;;5041910;28;20108;-82
2023/12/03 09:25:13;;;;;;;11.77;7.10;;;;;;;;;;5045721;28;20496;-80
2023/12/03 09:27:38;;;;;;;12.07;6.43;;;;;;;;;;5050004;28;20032;-81
2023/12/03 09:30:05;;;;;;;11.82;6.90;;;;;;;;;;5051501;28;20022;-80
2023/12/03 09:32:30;;;;;;;13.88;7.32;;;;;;;;;;5038545;28;20500;-82
2023/12/03 09:34:55;;;;;;;14.30;7.43;;;;;;;;;;5040922;28;20087;-81
2023/12/03 09:37:20;;;;;;;13.27;7.35;;;;;;;;;;5043682;28;20027;-82
2023/12/03 09:39:45;;;;;;;13.55;7.18;;;;;;;;;;5061737;28;20555;-83
2023/12/03 09:42:16;;;;;;;15.60;7.55;;;;;;;;;;5044208;28;20052;-83
2023/12/03 09:44:50;;;;;;;12.70;6.80;;;;;;;;;;5048383;28;20022;-81
2023/12/03 09:47:16;;;;;;;13.85;6.32;;;;;;;;;;5038540;28;20116;-76
2023/12/03 09:49:47;;;;;;;17.13;7.07;;;;;;;;;;5053634;28;20575;-78
2023/12/03 09:52:14;;;;;;;13.82;6.32;;;;;;;;;;5052934;28;20036;-77
2023/12/03 09:54:42;;;;;;;12.30;7.00;;;;;;;;;;5054139;28;20032;-77
2023/12/03 09:57:08;;;;;;;13.27;6.93;;;;;;;;;;5053570;28;20044;-77
2023/12/03 09:59:34;;;;;;;15.73;7.82;;;;;;;;;;5052317;28;20025;-78
2023/12/03 10:02:00;;;;;;;14.68;7.70;;;;;;;;;;5036327;28;20029;-79
2023/12/03 10:04:26;;;;;;;14.32;7.40;;;;;;;;;;5035931;28;20510;-78
2023/12/03 10:06:53;;;;;;;18.55;8.40;;;;;;;;;;5028153;28;20144;-78
2023/12/03 10:09:19;;;;;;;16.17;7.75;;;;;;;;;;5032194;28;20366;-78
2023/12/03 10:11:55;;;;;;;14.65;7.60;;;;;;;;;;5040308;28;20052;-78
2023/12/03 10:14:21;;;;;;;12.50;7.15;;;;;;;;;;5046981;28;20039;-76
2023/12/03 10:16:50;;;;;;;11.68;6.60;;;;;;;;;;5053050;28;20025;-76
2023/12/03 10:19:26;;;;;;;39.72;14.50;;;;;;;;;;5030738;28;20078;-78
2023/12/03 10:21:52;;;;;;;21.02;9.15;;;;;;;;;;5044333;28;20029;-77
2023/12/03 10:24:18;;;;;;;17.08;8.18;;;;;;;;;;5048052;28;20373;-77
2023/12/03 10:26:51;;;;;;;16.13;7.63;;;;;;;;;;5051109;28;20029;-76
2023/12/03 10:29:19;;;;;;;10.17;5.87;;;;;;;;;;5039270;28;20039;-77
2023/12/03 10:31:48;;;;;;;11.60;6.55;;;;;;;;;;5041477;28;20074;-76
2023/12/03 10:34:14;;;;;;;11.52;6.72;;;;;;;;;;5044079;28;20036;-77
2023/12/03 10:36:42;;;;;;;12.05;6.22;;;;;;;;;;5046048;28;20146;-77
2023/12/03 10:39:08;;;;;;;12.50;5.50;;;;;;;;;;5062961;28;20084;-77
2023/12/03 10:41:33;;;;;;;9.75;5.80;;;;;;;;;;5064176;28;20031;-77
2023/12/03 10:43:58;;;;;;;11.10;5.93;;;;;;;;;;5063162;28;20020;-77
2023/12/03 10:46:23;;;;;;;10.93;5.88;;;;;;;;;;5062587;28;20033;-77
2023/12/03 10:48:50;;;;;;;11.27;5.57;;;;;;;;;;5056336;28;20029;-77
2023/12/03 10:51:15;;;;;;;10.50;5.50;;;;;;;;;;5054064;28;20512;-77
2023/12/03 10:53:41;;;;;;;10.30;5.78;;;;;;;;;;5059449;28;20071;-75
2023/12/03 10:56:07;;;;;;;11.15;5.85;;;;;;;;;;5053182;28;20524;-77
2023/12/03 10:58:37;;;;;;;10.30;5.00;;;;;;;;;;5032610;28;20025;-76
2023/12/03 11:01:18;;;;;;;8.88;5.30;;;;;;;;;;5044095;28;20026;-77
2023/12/03 11:03:54;;;;;;;12.23;5.78;;;;;;;;;;5038960;28;20029;-77
2023/12/03 11:06:22;;;;;;;9.35;4.93;;;;;;;;;;5049956;28;20018;-76
2023/12/03 11:08:48;;;;;;;10.02;5.75;;;;;;;;;;5035608;28;20036;-77
2023/12/03 11:11:13;;;;;;;9.15;5.47;;;;;;;;;;5058165;28;20076;-77
2023/12/03 11:13:41;;;;;;;10.48;5.43;;;;;;;;;;5042821;28;20033;-77
2023/12/03 11:16:07;;;;;;;9.98;5.55;;;;;;;;;;5042069;28;20029;-79
2023/12/03 11:18:37;;;;;;;7.70;4.60;;;;;;;;;;5059568;28;20048;-77
2023/12/03 11:21:13;;;;;;;9.10;5.40;;;;;;;;;;5043088;28;20092;-77
2023/12/03 11:24:18;;;;;;;10.18;5.65;;;;;;;;;;5033668;28;20021;-77
2023/12/03 11:26:43;;;;;;;11.32;5.90;;;;;;;;;;5049016;28;20048;-75
2023/12/03 11:29:08;;;;;;;8.38;4.22;;;;;;;;;;5035013;28;20025;-76
2023/12/03 11:31:34;;;;;;;8.77;5.60;;;;;;;;;;5040134;28;20017;-76
2023/12/03 11:34:00;;;;;;;10.75;5.63;;;;;;;;;;5060558;28;20456;-78
2023/12/03 11:36:36;;;;;;;9.90;5.75;;;;;;;;;;5063111;28;20031;-77
2023/12/03 11:39:06;;;;;;;11.52;5.25;;;;;;;;;;5054811;28;20044;-77
2023/12/03 11:41:38;;;;;;;12.35;6.47;;;;;;;;;;5040917;28;20025;-78
2023/12/03 11:44:30;;;;;;;10.07;5.65;;;;;;;;;;5050414;28;20079;-77
2023/12/03 11:47:03;;;;;;;11.05;5.78;;;;;;;;;;5031232;28;20037;-77
2023/12/03 11:49:29;;;;;;;10.43;6.17;;;;;;;;;;5052033;28;20463;-78
2023/12/03 11:51:54;;;;;;;11.32;6.18;;;;;;;;;;5037485;28;20032;-77
2023/12/03 11:54:49;;;;;;;9.32;5.20;;;;;;;;;;5055984;28;20116;-77
2023/12/03 11:57:15;;;;;;;13.30;6.18;;;;;;;;;;5034840;28;20040;-77
2023/12/03 11:59:44;;;;;;;11.40;6.68;;;;;;;;;;5037000;28;20021;-76
2023/12/03 12:02:09;;;;;;;14.55;7.45;;;;;;;;;;5042482;28;20026;-77
2023/12/03 12:04:35;;;;;;;9.70;4.93;;;;;;;;;;5018609;28;20041;-78
2023/12/03 12:07:16;;;;;;;12.13;6.28;;;;;;;;;;5058864;28;20027;-79
2023/12/03 12:09:43;;;;;;;11.63;6.45;;;;;;;;;;5070836;28;20130;-78
2023/12/03 12:12:08;;;;;;;12.20;6.70;;;;;;;;;;5057544;28;20013;-78
2023/12/03 12:14:33;;;;;;;11.63;7.20;;;;;;;;;;5053046;28;20041;-78
2023/12/03 12:16:58;;;;;;;12.55;6.75;;;;;;;;;;5038251;28;20029;-78
2023/12/03 12:19:24;;;;;;;14.25;6.82;;;;;;;;;;5054959;28;20036;-78
2023/12/03 12:21:53;;;;;;;11.98;7.00;;;;;;;;;;5054776;28;20464;-77
2023/12/03 12:24:19;;;;;;;12.95;7.05;;;;;;;;;;5054950;28;20024;-77
2023/12/03 12:26:44;;;;;;;14.10;7.40;;;;;;;;;;5054904;28;20372;-77
2023/12/03 12:29:09;;;;;;;12.35;6.72;;;;;;;;;;5054785;28;20526;-76
2023/12/03 12:31:35;;;;;;;12.45;7.22;;;;;;;;;;5036606;28;20043;-77
2023/12/03 12:34:00;;;;;;;12.10;6.38;;;;;;;;;;5037119;28;20025;-77
2023/12/03 12:36:25;;;;;;;13.68;7.35;;;;;;;;;;5035982;28;20024;-77
2023/12/03 12:38:51;;;;;;;11.95;6.88;;;;;;;;;;5053949;28;20028;-76
2023/12/03 12:41:16;;;;;;;14.20;7.30;;;;;;;;;;5054546;28;20028;-77
2023/12/03 12:44:01;;;;;;;14.30;7.75;;;;;;;;;;5050302;28;20033;-79
2023/12/03 12:46:31;;;;;;;14.20;7.07;;;;;;;;;;5026003;28;20037;-77
2023/12/03 12:49:15;;;;;;;12.82;6.90;;;;;;;;;;5053337;28;20020;-77
2023/12/03 12:51:40;;;;;;;;;;;;;;;;;;5046013;28;20055;-74
2023/12/03 12:54:07;;;;;;;11.27;6.40;;;;;;;;;;5034162;28;19912;-76
2023/12/03 12:56:32;;;;;;;10.05;6.28;;;;;;;;;;5032886;28;20035;-75
2023/12/03 12:58:57;;;;;;;14.02;8.10;;;;;;;;;;5044656;28;20403;-77
2023/12/03 13:01:23;;;;;;;13.73;7.07;;;;;;;;;;5049808;28;20236;-77
2023/12/03 13:03:48;;;;;;;10.20;6.15;;;;;;;;;;5048422;28;20029;-76
2023/12/03 13:06:15;;;;;;;13.77;7.15;;;;;;;;;;5034178;28;20045;-77
2023/12/03 13:08:40;;;;;;;12.50;7.05;;;;;;;;;;5034267;28;20037;-76
2023/12/03 13:11:05;;;;;;;16.10;7.38;;;;;;;;;;5042073;28;20025;-76
2023/12/03 13:13:33;;;;;;;13.70;7.70;;;;;;;;;;5047724;28;20395;-77
2023/12/03 13:15:58;;;;;;;13.40;6.57;;;;;;;;;;5032829;28;20018;-77
2023/12/03 13:18:24;;;;;;;12.13;6.53;;;;;;;;;;5034583;28;20632;-75
2023/12/03 13:20:50;;;;;;;13.70;7.10;;;;;;;;;;5027421;28;20025;-77
2023/12/03 13:23:16;;;;;;;6.82;4.53;;;;;;;;;;5042817;28;20017;-76
2023/12/03 13:25:42;;;;;;;10.88;6.10;;;;;;;;;;5042588;28;20148;-76
2023/12/03 13:28:08;;;;;;;12.52;6.80;;;;;;;;;;5043984;28;20021;-77
2023/12/03 13:30:33;;;;;;;13.95;7.47;;;;;;;;;;5032750;28;20032;-77
2023/12/03 13:32:58;;;;;;;12.32;6.93;;;;;;;;;;5042458;28;20469;-77
2023/12/03 13:35:23;;;;;;;15.63;7.32;;;;;;;;;;5043743;28;20436;-76
2023/12/03 13:37:48;;;;;;;16.10;7.82;;;;;;;;;;5041492;28;20027;-77
2023/12/03 13:40:14;;;;;;;12.73;6.85;;;;;;;;;;5042405;28;20029;-77
2023/12/03 13:42:41;;;;;;;14.98;7.68;;;;;;;;;;5033313;28;20017;-77
2023/12/03 13:45:07;;;;;;;15.65;7.22;;;;;;;;;;5034182;28;20071;-77
2023/12/03 13:47:33;;;;;;;16.50;8.05;;;;;;;;;;5041945;28;20658;-77
2023/12/03 13:50:00;;;;;;;12.85;6.85;;;;;;;;;;5042536;28;20545;-76
2023/12/03 13:52:26;;;;;;;12.63;6.82;;;;;;;;;;5033705;28;20035;-76
2023/12/03 13:54:51;;;;;;;19.58;7.45;;;;;;;;;;5050224;28;20029;-77
2023/12/03 13:57:16;;;;;;;15.57;7.90;;;;;;;;;;5016243;28;20036;-77
2023/12/03 13:59:42;;;;;;;13.80;7.35;;;;;;;;;;5034832;28;21710;-75
2023/12/03 14:02:09;;;;;;;13.57;7.57;;;;;;;;;;5034327;28;20025;-76
2023/12/03 14:04:35;;;;;;;16.20;7.88;;;;;;;;;;5034532;28;20039;-74
2023/12/03 14:07:01;;;;;;;14.98;7.75;;;;;;;;;;5034142;28;20403;-74
2023/12/03 14:09:26;;;;;;;14.32;7.47;;;;;;;;;;5031864;28;20025;-75
2023/12/03 14:11:52;;;;;;;15.60;7.80;;;;;;;;;;5044676;28;20025;-75
2023/12/03 14:14:18;;;;;;;17.63;6.68;;;;;;;;;;5025935;28;20021;-75
2023/12/03 14:16:53;;;;;;;15.75;8.13;;;;;;;;;;5046440;28;20480;-74
2023/12/03 14:19:18;;;;;;;13.65;7.07;;;;;;;;;;5043026;28;20071;-75
2023/12/03 14:21:43;;;;;;;14.57;7.93;;;;;;;;;;5041810;28;20037;-75
2023/12/03 14:24:09;;;;;;;15.18;8.00;;;;;;;;;;5033349;28;20112;-73
2023/12/03 14:26:34;;;;;;;15.32;8.18;;;;;;;;;;5040405;28;20100;-76